BIU weather

Bildudalur Airport
Bildudalur, Westfjords, Iceland

Public forecast

Using degrees Celsius for public forecast. Weather courtesy of forecast.io.

Current aviation weather report (METAR) for Bildudalur Airport

Retrieved 2019/10/18 09:00 UTC (41 minutes ago):

BIBD 180900Z 20002KT CAVOK 01/M04 Q1018

Closest aviation forecast (TAF) to Bildudalur Airport

Closest forecast is Reykjavik Airport, 99.5 nm (184.3 km) SSE. Retrieved 2019/10/18 09:33 UTC (8 minutes ago):

TAF BIRK 180729Z 1809/1909 09005KT CAVOK TX07/1815Z TN02/1809Z BECMG 1815/1817 9999 BKN025 TEMPO 1821/1909 -SHRA FEW015 BKN020